Lincoln, Massachusetts
Current Conditions -  °F | °C
As of 3:56 AM on Wednesday 26 Nov 2014 (Local Time) from KBED Reporting Station
Clear Clear  
Wind Chill: 41°   Ceiling: Unl
Heat Index: 41°   Visibility: 10mi
Dew Point: 31°   Wind: 0mph
Humidity: 67%   Direction: NA
Pressure: 30.19"   Gusts: NA
Location:  42.43°N, 71.3°W
Report Text: KBED 260856Z AUTO 00000KT 10SM CLR 05/M01 A3019 RMK AO2 SLP236 T00501006 53021 TSNO
Loading
Personal Weather Stations






























Interactive Weather Map New forecast layout! Learn more

10-Day Weather Forecast

Advertisements
Track Severe Weather on mobile